createdAt,value
2018-05-25T00:00:26.818Z,98191.71
2018-05-25T00:00:58.392Z,98189.58
2018-05-25T00:01:29.978Z,98190.44
2018-05-25T00:02:01.577Z,98191.72
2018-05-25T00:02:33.202Z,98190.88
2018-05-25T00:03:04.768Z,98187.89
2018-05-25T00:03:36.360Z,98173.66
2018-05-25T00:04:07.969Z,98189.61
2018-05-25T00:04:39.553Z,98192.64
2018-05-25T00:05:11.134Z,98190.95
2018-05-25T00:05:42.720Z,98190.52
2018-05-25T00:06:14.331Z,98190.88
2018-05-25T00:06:45.982Z,98184.05
2018-05-25T00:07:17.574Z,98199.41
2018-05-25T00:07:49.153Z,98188.33
2018-05-25T00:08:20.767Z,98184.91
2018-05-25T00:08:52.348Z,98190.86
2018-05-25T00:09:24.205Z,98181.91
2018-05-25T00:09:55.847Z,98184.82
2018-05-25T00:10:27.454Z,98189.94
2018-05-25T00:10:59.038Z,98184.39
2018-05-25T00:11:30.622Z,98183.97
2018-05-25T00:12:02.192Z,98180.13
2018-05-25T00:12:33.778Z,98184.38
2018-05-25T00:13:05.368Z,98189.09
2018-05-25T00:13:36.964Z,98186.09
2018-05-25T00:14:08.550Z,98182.20
2018-05-25T00:14:40.197Z,98183.05
2018-05-25T00:15:11.802Z,98180.07
2018-05-25T00:15:43.458Z,98182.20
2018-05-25T00:16:15.032Z,98188.17
2018-05-25T00:16:46.618Z,98181.83
2018-05-25T00:17:18.188Z,98179.26
2018-05-25T00:17:49.757Z,98176.23
2018-05-25T00:18:21.324Z,98177.51
2018-05-25T00:18:52.920Z,98177.98
2018-05-25T00:19:24.534Z,98180.92
2018-05-25T00:19:56.122Z,98183.09
2018-05-25T00:20:27.721Z,98186.89
2018-05-25T00:20:59.374Z,98181.34
2018-05-25T00:21:30.964Z,98186.09
2018-05-25T00:22:02.565Z,98181.83
2018-05-25T00:22:34.174Z,98178.83
2018-05-25T00:23:05.762Z,98183.97
2018-05-25T00:23:37.365Z,98186.95
2018-05-25T00:24:08.960Z,98183.11
2018-05-25T00:24:40.604Z,98180.98
2018-05-25T00:25:12.206Z,98183.98
2018-05-25T00:25:43.854Z,98185.26
2018-05-25T00:26:15.470Z,98182.69
2018-05-25T00:26:47.086Z,98192.50
2018-05-25T00:27:18.660Z,98186.95
2018-05-25T00:27:50.229Z,98186.53
2018-05-25T00:28:21.838Z,98190.36
2018-05-25T00:28:53.426Z,98192.52
2018-05-25T00:29:25.045Z,98187.81
2018-05-25T00:29:56.659Z,98187.80
2018-05-25T00:30:28.236Z,98188.23
2018-05-25T00:30:59.857Z,98187.37
2018-05-25T00:31:31.438Z,98185.66
2018-05-25T00:32:03.029Z,98189.08
2018-05-25T00:32:34.641Z,98184.83
2018-05-25T00:33:06.213Z,98190.79
2018-05-25T00:33:37.821Z,98189.51
2018-05-25T00:34:09.450Z,98182.27
2018-05-25T00:34:41.030Z,98190.79
2018-05-25T00:35:12.610Z,98185.67
2018-05-25T00:35:44.190Z,98189.09
2018-05-25T00:36:15.756Z,98184.39
2018-05-25T00:36:47.364Z,98188.23
2018-05-25T00:37:19.050Z,98187.80
2018-05-25T00:37:50.662Z,98186.89
2018-05-25T00:38:22.245Z,98184.81
2018-05-25T00:38:53.852Z,98187.80
2018-05-25T00:39:25.465Z,98182.27
2018-05-25T00:39:57.048Z,98185.68
2018-05-25T00:40:28.630Z,98187.02
2018-05-25T00:41:00.210Z,98183.59
2018-05-25T00:41:31.804Z,98183.59
2018-05-25T00:42:03.409Z,98183.59
2018-05-25T00:42:35.044Z,98184.03
2018-05-25T00:43:06.630Z,98188.73
2018-05-25T00:43:38.210Z,98186.59
2018-05-25T00:44:09.788Z,98184.04
2018-05-25T00:44:41.369Z,98184.90
2018-05-25T00:45:12.973Z,98186.61
2018-05-25T00:45:44.557Z,98185.77
2018-05-25T00:46:16.166Z,98179.78
2018-05-25T00:46:47.754Z,98181.06
2018-05-25T00:47:19.338Z,98183.61
2018-05-25T00:47:50.964Z,98179.75
2018-05-25T00:48:22.549Z,98178.48
2018-05-25T00:48:54.226Z,98178.07
2018-05-25T00:49:25.797Z,98178.05
2018-05-25T00:49:57.465Z,98185.31
2018-05-25T00:50:29.097Z,98178.86
2018-05-25T00:51:00.637Z,98175.88
2018-05-25T00:51:32.245Z,98173.67
2018-05-25T00:52:03.830Z,98173.96
2018-05-25T00:52:35.400Z,98170.55
2018-05-25T00:53:07.026Z,98170.58
2018-05-25T00:53:38.625Z,98172.73
2018-05-25T00:54:10.206Z,98170.23
2018-05-25T00:54:41.850Z,98165.98
2018-05-25T00:55:13.466Z,98175.38
2018-05-25T00:55:45.046Z,98170.30
2018-05-25T00:56:16.620Z,98165.69
2018-05-25T00:56:48.205Z,98163.98
2018-05-25T00:57:19.820Z,98166.98
2018-05-25T00:57:51.415Z,98173.01
2018-05-25T00:58:23.002Z,98170.05
2018-05-25T00:58:54.669Z,98171.75
2018-05-25T00:59:26.248Z,98171.81
2018-05-25T00:59:57.849Z,98170.52
2018-05-25T01:00:29.457Z,98168.39
2018-05-25T01:01:01.043Z,98168.39
2018-05-25T01:01:32.620Z,98171.83
2018-05-25T01:02:04.221Z,98170.97
2018-05-25T01:02:35.826Z,98175.23
2018-05-25T01:03:07.396Z,98169.73
2018-05-25T01:03:38.972Z,98167.60
2018-05-25T01:04:10.622Z,98174.45
2018-05-25T01:04:42.192Z,98173.14
2018-05-25T01:05:13.760Z,98172.31
2018-05-25T01:05:45.352Z,98178.27
2018-05-25T01:06:16.938Z,98173.58
2018-05-25T01:06:48.546Z,98169.77
2018-05-25T01:07:20.146Z,98176.58
2018-05-25T01:07:51.773Z,98173.59
2018-05-25T01:08:23.341Z,98175.72
2018-05-25T01:08:54.918Z,98177.43
2018-05-25T01:09:26.546Z,98169.33
2018-05-25T01:09:58.149Z,98171.03
2018-05-25T01:10:29.774Z,98172.72
2018-05-25T01:11:01.354Z,98174.85
2018-05-25T01:11:32.934Z,98171.02
2018-05-25T01:12:04.538Z,98176.14
2018-05-25T01:12:36.132Z,98167.19
2018-05-25T01:13:07.732Z,98165.91
2018-05-25T01:13:39.326Z,98168.05
2018-05-25T01:14:10.913Z,98165.05
2018-05-25T01:14:42.550Z,98165.48
2018-05-25T01:15:14.148Z,98169.33
2018-05-25T01:15:45.728Z,98169.33
2018-05-25T01:16:17.300Z,98163.77
2018-05-25T01:16:48.882Z,98162.05
2018-05-25T01:17:20.466Z,98164.62
2018-05-25T01:17:52.046Z,98159.92
2018-05-25T01:18:23.654Z,98161.20
2018-05-25T01:18:55.238Z,98159.91
2018-05-25T01:19:26.822Z,98161.58
2018-05-25T01:19:58.424Z,98162.91
2018-05-25T01:20:30.007Z,98162.50
2018-05-25T01:21:01.585Z,98163.77
2018-05-25T01:21:33.231Z,98169.75
2018-05-25T01:22:04.873Z,98166.77
2018-05-25T01:22:36.486Z,98168.09
2018-05-25T01:23:08.097Z,98165.11
2018-05-25T01:23:39.745Z,98165.11
2018-05-25T01:24:11.330Z,98166.81
2018-05-25T01:24:42.914Z,98171.09
2018-05-25T01:25:14.562Z,98161.70
2018-05-25T01:25:46.167Z,98166.33
2018-05-25T01:26:17.778Z,98173.50
2018-05-25T01:26:49.363Z,98163.98
2018-05-25T01:27:20.965Z,98164.77
2018-05-25T01:27:52.594Z,98166.79
2018-05-25T01:28:24.164Z,98163.30
2018-05-25T01:28:55.756Z,98164.22
2018-05-25T01:29:27.339Z,98168.49
2018-05-25T01:29:59.202Z,98165.92
2018-05-25T01:30:30.836Z,98164.23
2018-05-25T01:31:02.433Z,98164.66
2018-05-25T01:31:34.018Z,98165.92
2018-05-25T01:32:05.621Z,98161.21
2018-05-25T01:32:37.215Z,98163.36
2018-05-25T01:33:08.801Z,98164.17
2018-05-25T01:33:40.386Z,98165.86
2018-05-25T01:34:11.990Z,98166.78
2018-05-25T01:34:43.575Z,98165.02
2018-05-25T01:35:15.152Z,98167.62
2018-05-25T01:35:46.777Z,98175.32
2018-05-25T01:36:18.426Z,98166.81
2018-05-25T01:36:50.011Z,98168.89
2018-05-25T01:37:21.617Z,98168.91
2018-05-25T01:37:53.206Z,98168.49
2018-05-25T01:38:24.818Z,98166.34
2018-05-25T01:38:56.475Z,98170.23
2018-05-25T01:39:28.085Z,98167.73
2018-05-25T01:39:59.666Z,98161.37
2018-05-25T01:40:31.274Z,98160.55
2018-05-25T01:41:02.873Z,98168.47
2018-05-25T01:41:34.547Z,98163.92
2018-05-25T01:42:06.133Z,98163.38
2018-05-25T01:42:37.718Z,98162.94
2018-05-25T01:43:09.325Z,98166.19
2018-05-25T01:43:40.919Z,98163.58
2018-05-25T01:44:12.559Z,98157.73
2018-05-25T01:44:44.156Z,98159.93
2018-05-25T01:45:15.742Z,98159.11
2018-05-25T01:45:47.341Z,98157.89
2018-05-25T01:46:18.950Z,98163.52
2018-05-25T01:46:50.534Z,98160.17
2018-05-25T01:47:22.119Z,98159.88
2018-05-25T01:47:53.722Z,98162.08
2018-05-25T01:48:25.298Z,98157.86
2018-05-25T01:48:56.899Z,98154.52
2018-05-25T01:49:28.509Z,98157.14
2018-05-25T01:50:00.158Z,98160.62
2018-05-25T01:50:31.746Z,98153.41
2018-05-25T01:51:03.346Z,98153.89
2018-05-25T01:51:34.926Z,98160.34
2018-05-25T01:52:06.534Z,98155.65
2018-05-25T01:52:38.145Z,98157.23
2018-05-25T01:53:09.743Z,98149.47
2018-05-25T01:53:41.326Z,98153.17
2018-05-25T01:54:12.905Z,98146.86
2018-05-25T01:54:44.511Z,98154.93
2018-05-25T01:55:16.112Z,98155.75
2018-05-25T01:55:47.714Z,98158.80
2018-05-25T01:56:19.298Z,98154.16
2018-05-25T01:56:50.941Z,98155.11
2018-05-25T01:57:22.566Z,98154.75
2018-05-25T01:57:54.165Z,98155.25
2018-05-25T01:58:25.744Z,98155.31
2018-05-25T01:58:57.336Z,98154.51
2018-05-25T01:59:28.917Z,98155.43
2018-05-25T02:00:00.525Z,98152.05
2018-05-25T02:00:32.137Z,98151.67
2018-05-25T02:01:03.722Z,98150.88
2018-05-25T02:01:38.654Z,98151.33
2018-05-25T02:02:10.252Z,98150.13
2018-05-25T02:02:41.901Z,98154.80
2018-05-25T02:03:13.507Z,98152.26
2018-05-25T02:03:45.084Z,98156.57
2018-05-25T02:04:16.662Z,98147.68
2018-05-25T02:04:48.238Z,98150.62
2018-05-25T02:05:19.822Z,98153.22
2018-05-25T02:05:51.421Z,98153.23
2018-05-25T02:06:23.016Z,98154.94
2018-05-25T02:06:54.604Z,98157.50
2018-05-25T02:07:26.212Z,98160.92
2018-05-25T02:07:57.848Z,98156.70
2018-05-25T02:08:29.461Z,98156.70
2018-05-25T02:09:01.041Z,98159.26
2018-05-25T02:09:32.646Z,98162.25
2018-05-25T02:10:04.255Z,98157.58
2018-05-25T02:10:35.838Z,98160.98
2018-05-25T02:11:07.428Z,98159.71
2018-05-25T02:11:39.026Z,98158.86
2018-05-25T02:12:10.596Z,98159.75
2018-05-25T02:12:42.208Z,98160.14
2018-05-25T02:13:13.776Z,98158.01
2018-05-25T02:13:45.368Z,98156.30
2018-05-25T02:14:16.964Z,98158.48
2018-05-25T02:14:48.553Z,98158.86
2018-05-25T02:15:20.158Z,98152.47
2018-05-25T02:15:51.760Z,98160.55
2018-05-25T02:16:23.345Z,98156.72
2018-05-25T02:16:54.936Z,98159.27
2018-05-25T02:17:26.576Z,98160.54
2018-05-25T02:17:58.148Z,98155.42
2018-05-25T02:18:29.730Z,98154.53
2018-05-25T02:19:01.308Z,98155.38
2018-05-25T02:19:32.898Z,98156.22
2018-05-25T02:20:04.501Z,98147.25
2018-05-25T02:20:36.113Z,98154.50
2018-05-25T02:21:07.823Z,98145.98
2018-05-25T02:21:39.433Z,98152.75
2018-05-25T02:22:11.009Z,98148.91
2018-05-25T02:22:42.576Z,98148.47
2018-05-25T02:23:14.185Z,98144.63
2018-05-25T02:23:45.862Z,98147.19
2018-05-25T02:24:17.445Z,98143.80
2018-05-25T02:24:49.053Z,98150.17
2018-05-25T02:25:20.629Z,98143.35
2018-05-25T02:25:52.214Z,98146.34
2018-05-25T02:26:23.798Z,98150.17
2018-05-25T02:26:55.396Z,98140.38
2018-05-25T02:27:27.006Z,98145.50
2018-05-25T02:27:58.613Z,98148.91
2018-05-25T02:28:30.266Z,98143.00
2018-05-25T02:29:01.850Z,98146.83
2018-05-25T02:29:33.420Z,98149.39
2018-05-25T02:30:05.002Z,98152.38
2018-05-25T02:30:36.576Z,98148.13
2018-05-25T02:31:08.177Z,98150.69
2018-05-25T02:31:39.753Z,98146.85
2018-05-25T02:32:11.321Z,98146.47
2018-05-25T02:32:42.925Z,98146.05
2018-05-25T02:33:14.520Z,98152.45
2018-05-25T02:33:46.149Z,98151.16
2018-05-25T02:34:17.749Z,98149.11
2018-05-25T02:34:49.330Z,98152.45
2018-05-25T02:35:21.082Z,98149.48
2018-05-25T02:35:52.637Z,98156.73
2018-05-25T02:36:24.208Z,98155.03
2018-05-25T02:36:55.789Z,98152.51
2018-05-25T02:37:27.394Z,98152.51
2018-05-25T02:37:58.996Z,98150.81
2018-05-25T02:38:30.592Z,98152.58
2018-05-25T02:39:02.226Z,98149.11
2018-05-25T02:39:33.820Z,98151.30
2018-05-25T02:40:05.400Z,98149.55
2018-05-25T02:40:37.008Z,98148.69
2018-05-25T02:41:08.594Z,98152.11
2018-05-25T02:41:40.188Z,98148.26
2018-05-25T02:42:11.816Z,98151.23
2018-05-25T02:42:43.398Z,98149.96
2018-05-25T02:43:14.965Z,98149.11
2018-05-25T02:43:46.542Z,98147.84
2018-05-25T02:44:18.140Z,98146.98
2018-05-25T02:44:49.745Z,98151.66
2018-05-25T02:45:21.331Z,98148.25
2018-05-25T02:45:53.259Z,98144.85
2018-05-25T02:46:24.838Z,98148.26
2018-05-25T02:46:56.412Z,98150.39
2018-05-25T02:47:28.054Z,98147.41
2018-05-25T02:47:59.629Z,98145.28
2018-05-25T02:48:31.233Z,98145.70
2018-05-25T02:49:02.808Z,98151.23
2018-05-25T02:49:34.390Z,98150.81
2018-05-25T02:50:05.965Z,98145.28
2018-05-25T02:50:37.546Z,98152.08
2018-05-25T02:51:09.154Z,98144.80
2018-05-25T02:51:40.747Z,98149.04
2018-05-25T02:52:12.392Z,98150.31
2018-05-25T02:52:44.002Z,98150.31
2018-05-25T02:53:15.591Z,98151.16
2018-05-25T02:53:47.189Z,98150.31
2018-05-25T02:54:18.791Z,98142.64
2018-05-25T02:54:50.382Z,98149.90
2018-05-25T02:55:21.952Z,98146.92
2018-05-25T02:55:53.563Z,98153.75
2018-05-25T02:56:25.157Z,98152.88
2018-05-25T02:56:56.763Z,98153.75
2018-05-25T02:57:28.404Z,98149.91
2018-05-25T02:58:00.054Z,98154.22
2018-05-25T02:58:31.693Z,98152.93
2018-05-25T02:59:03.278Z,98151.23
2018-05-25T02:59:34.858Z,98154.23
2018-05-25T03:00:06.458Z,98146.98
2018-05-25T03:00:38.064Z,98151.30
2018-05-25T03:01:09.659Z,98153.85
2018-05-25T03:01:41.362Z,98151.30
2018-05-25T03:02:12.969Z,98154.28
2018-05-25T03:02:44.619Z,98155.14
2018-05-25T03:03:16.226Z,98156.86
2018-05-25T03:03:47.858Z,98151.31
2018-05-25T03:04:19.466Z,98151.31
2018-05-25T03:04:51.045Z,98152.17
2018-05-25T03:05:22.658Z,98153.49
2018-05-25T03:05:54.246Z,98144.55
2018-05-25T03:06:25.837Z,98156.01
2018-05-25T03:06:57.441Z,98151.80
2018-05-25T03:07:29.013Z,98154.77
2018-05-25T03:08:00.591Z,98150.09
2018-05-25T03:08:32.246Z,98149.23
2018-05-25T03:09:03.894Z,98149.67
2018-05-25T03:09:35.482Z,98149.25
2018-05-25T03:10:07.094Z,98147.97
2018-05-25T03:10:38.682Z,98158.21
2018-05-25T03:11:10.266Z,98150.16
2018-05-25T03:11:41.864Z,98153.94
2018-05-25T03:12:13.536Z,98154.37
2018-05-25T03:12:45.108Z,98154.80
2018-05-25T03:13:16.714Z,98153.09
2018-05-25T03:13:48.322Z,98153.52
2018-05-25T03:14:19.965Z,98153.09
2018-05-25T03:14:51.578Z,98154.38
2018-05-25T03:15:23.166Z,98151.42
2018-05-25T03:15:54.762Z,98158.21
2018-05-25T03:16:26.346Z,98153.09
2018-05-25T03:16:58.034Z,98155.27
2018-05-25T03:17:29.617Z,98159.95
2018-05-25T03:18:01.226Z,98151.45
2018-05-25T03:18:32.817Z,98157.83
2018-05-25T03:19:04.384Z,98159.95
2018-05-25T03:19:36.015Z,98157.40
2018-05-25T03:20:07.588Z,98159.97
2018-05-25T03:20:39.192Z,98159.11
2018-05-25T03:21:10.797Z,98162.53
2018-05-25T03:21:42.376Z,98163.38
2018-05-25T03:22:13.958Z,98162.53
2018-05-25T03:22:45.532Z,98161.67
2018-05-25T03:23:17.135Z,98161.68
2018-05-25T03:23:48.716Z,98164.23
2018-05-25T03:24:20.352Z,98164.23
2018-05-25T03:24:52.006Z,98161.26
2018-05-25T03:25:23.593Z,98164.25
2018-05-25T03:25:55.188Z,98158.74
2018-05-25T03:26:26.785Z,98163.39
2018-05-25T03:26:58.384Z,98165.52
2018-05-25T03:27:29.974Z,98161.68
2018-05-25T03:28:01.559Z,98154.86
2018-05-25T03:28:33.202Z,98160.89
2018-05-25T03:29:04.810Z,98165.14
2018-05-25T03:29:36.422Z,98160.02
2018-05-25T03:30:08.037Z,98159.62
2018-05-25T03:30:39.619Z,98166.81
2018-05-25T03:31:11.216Z,98163.44
2018-05-25T03:31:42.798Z,98170.21
2018-05-25T03:32:14.383Z,98168.94
2018-05-25T03:32:45.989Z,98169.36
2018-05-25T03:33:17.606Z,98163.02
2018-05-25T03:33:49.254Z,98172.77
2018-05-25T03:34:20.902Z,98171.06
2018-05-25T03:34:52.553Z,98167.64
2018-05-25T03:35:24.157Z,98170.63
2018-05-25T03:35:55.752Z,98172.71
2018-05-25T03:36:27.337Z,98171.05
2018-05-25T03:36:58.945Z,98170.63
2018-05-25T03:37:30.555Z,98173.19
2018-05-25T03:38:02.158Z,98170.63
2018-05-25T03:38:33.745Z,98177.02
2018-05-25T03:39:05.333Z,98172.77
2018-05-25T03:39:36.958Z,98181.28
2018-05-25T03:40:08.557Z,98177.87
2018-05-25T03:40:40.141Z,98177.83
2018-05-25T03:41:11.798Z,98184.65
2018-05-25T03:41:43.401Z,98190.62
2018-05-25T03:42:14.986Z,98188.47
2018-05-25T03:42:46.593Z,98190.60
2018-05-25T03:43:18.174Z,98184.63
2018-05-25T03:43:49.764Z,98190.59
2018-05-25T03:44:21.346Z,98194.39
2018-05-25T03:44:52.946Z,98197.80
2018-05-25T03:45:24.558Z,98194.37
2018-05-25T03:45:56.165Z,98193.11
2018-05-25T03:46:27.785Z,98191.81
2018-05-25T03:46:59.370Z,98196.92
2018-05-25T03:47:30.964Z,98197.78
2018-05-25T03:48:02.562Z,98191.81
2018-05-25T03:48:34.160Z,98189.25
2018-05-25T03:49:05.740Z,98188.40
2018-05-25T03:49:37.345Z,98188.83
2018-05-25T03:50:08.917Z,98193.47
2018-05-25T03:50:40.541Z,98196.45
2018-05-25T03:51:12.122Z,98199.85
2018-05-25T03:51:43.726Z,98204.06
2018-05-25T03:52:15.327Z,98200.66
2018-05-25T03:52:46.906Z,98204.06
2018-05-25T03:53:18.509Z,98203.64
2018-05-25T03:53:50.122Z,98204.06
2018-05-25T03:54:21.702Z,98202.78
2018-05-25T03:54:53.309Z,98204.49
2018-05-25T03:55:24.890Z,98202.78
2018-05-25T03:55:56.533Z,98201.50
2018-05-25T03:56:28.128Z,98204.53
2018-05-25T03:56:59.714Z,98204.92
2018-05-25T03:57:31.294Z,98205.83
2018-05-25T03:58:02.868Z,98202.42
2018-05-25T03:58:34.450Z,98212.23
2018-05-25T03:59:06.053Z,98202.48
2018-05-25T03:59:37.662Z,98201.64
2018-05-25T04:00:09.250Z,98203.34
2018-05-25T04:00:40.875Z,98201.64
2018-05-25T04:01:12.489Z,98200.83
2018-05-25T04:01:44.106Z,98205.91
2018-05-25T04:02:15.710Z,98209.31
2018-05-25T04:02:47.309Z,98207.18
2018-05-25T04:03:18.922Z,98203.77
2018-05-25T04:03:50.501Z,98205.03
2018-05-25T04:04:22.102Z,98207.59
2018-05-25T04:04:53.750Z,98205.45
2018-05-25T04:05:25.374Z,98207.16
2018-05-25T04:05:56.959Z,98199.85
2018-05-25T04:06:28.537Z,98205.77
2018-05-25T04:07:00.138Z,98188.48
2018-05-25T04:07:31.747Z,98201.91
2018-05-25T04:08:03.320Z,98203.13
2018-05-25T04:08:34.961Z,98203.91
2018-05-25T04:09:06.571Z,98198.55
2018-05-25T04:09:38.187Z,98200.45
2018-05-25T04:10:09.790Z,98204.33
2018-05-25T04:10:41.420Z,98199.23
2018-05-25T04:11:13.033Z,98197.48
2018-05-25T04:11:44.645Z,98194.39
2018-05-25T04:12:16.256Z,98194.72
2018-05-25T04:12:47.838Z,98188.35
2018-05-25T04:13:19.412Z,98186.67
2018-05-25T04:13:51.017Z,98188.43
2018-05-25T04:14:22.637Z,98188.98
2018-05-25T04:14:54.246Z,98192.11
2018-05-25T04:15:25.850Z,98191.50
2018-05-25T04:15:57.439Z,98188.83
2018-05-25T04:16:29.045Z,98185.69
2018-05-25T04:17:00.645Z,98182.95
2018-05-25T04:17:32.285Z,98183.05
2018-05-25T04:18:03.936Z,98182.71
2018-05-25T04:18:35.545Z,98178.91
2018-05-25T04:19:07.130Z,98180.16
2018-05-25T04:19:38.700Z,98177.13
2018-05-25T04:20:10.286Z,98177.12
2018-05-25T04:20:41.894Z,98179.30
2018-05-25T04:21:13.508Z,98174.28
2018-05-25T04:21:45.126Z,98172.38
2018-05-25T04:22:16.729Z,98173.14
2018-05-25T04:22:48.342Z,98176.13
2018-05-25T04:23:19.983Z,98168.94
2018-05-25T04:23:51.598Z,98170.64
2018-05-25T04:24:23.209Z,98173.67
2018-05-25T04:24:54.793Z,98172.89
2018-05-25T04:25:26.402Z,98169.57
2018-05-25T04:25:58.010Z,98173.20
2018-05-25T04:26:29.622Z,98169.00
2018-05-25T04:27:01.233Z,98153.62
2018-05-25T04:27:32.808Z,98173.13
2018-05-25T04:28:04.435Z,98171.44
2018-05-25T04:28:36.008Z,98172.73
2018-05-25T04:29:07.646Z,98168.84
2018-05-25T04:29:39.229Z,98168.84
2018-05-25T04:30:10.818Z,98165.70
2018-05-25T04:30:42.422Z,98164.78
2018-05-25T04:31:14.009Z,98164.69
2018-05-25T04:31:45.590Z,98165.38
2018-05-25T04:32:17.194Z,98162.69
2018-05-25T04:32:48.772Z,98160.81
2018-05-25T04:33:20.354Z,98165.85
2018-05-25T04:33:51.953Z,98165.72
2018-05-25T04:34:23.601Z,98168.11
2018-05-25T04:34:55.253Z,98167.98
2018-05-25T04:35:26.866Z,98169.92
2018-05-25T04:35:58.451Z,98171.81
2018-05-25T04:36:30.048Z,98169.47
2018-05-25T04:37:01.638Z,98175.77
2018-05-25T04:37:33.208Z,98177.81
2018-05-25T04:38:04.840Z,98177.38
2018-05-25T04:38:36.454Z,98176.95
2018-05-25T04:39:08.038Z,98174.90
2018-05-25T04:39:39.626Z,98174.16
2018-05-25T04:40:11.274Z,98178.00
2018-05-25T04:40:42.881Z,98177.48
2018-05-25T04:41:14.494Z,98182.17
2018-05-25T04:41:46.150Z,98177.05
2018-05-25T04:42:17.728Z,98174.33
2018-05-25T04:42:49.314Z,98176.20
2018-05-25T04:43:20.938Z,98176.91
2018-05-25T04:43:52.498Z,98173.70
2018-05-25T04:44:24.148Z,98173.21
2018-05-25T04:44:55.798Z,98174.73
2018-05-25T04:45:27.386Z,98182.70
2018-05-25T04:45:58.980Z,98179.97
2018-05-25T04:46:30.570Z,98177.20
2018-05-25T04:47:02.178Z,98170.16
2018-05-25T04:47:33.755Z,98183.65
2018-05-25T04:48:05.338Z,98179.54
2018-05-25T04:48:36.937Z,98178.11
2018-05-25T04:49:08.570Z,98179.30
2018-05-25T04:49:40.178Z,98172.31
2018-05-25T04:50:11.762Z,98173.04
2018-05-25T04:50:43.386Z,98174.73
2018-05-25T04:51:14.965Z,98172.94
2018-05-25T04:51:46.582Z,98175.77
2018-05-25T04:52:18.165Z,98173.47
2018-05-25T04:52:49.781Z,98172.08
2018-05-25T04:53:21.356Z,98170.20
2018-05-25T04:53:52.992Z,98169.17
2018-05-25T04:54:24.574Z,98176.26
2018-05-25T04:54:56.154Z,98168.77
2018-05-25T04:55:27.757Z,98173.23
2018-05-25T04:55:59.342Z,98172.94
2018-05-25T04:56:30.961Z,98170.98
2018-05-25T04:57:02.570Z,98170.27
2018-05-25T04:57:34.178Z,98173.45
2018-05-25T04:58:05.902Z,98165.89
2018-05-25T04:58:37.486Z,98150.02
2018-05-25T04:59:09.083Z,98162.77
2018-05-25T04:59:40.694Z,98166.67
2018-05-25T05:00:12.282Z,98173.17
2018-05-25T05:00:43.886Z,98171.10
2018-05-25T05:01:15.460Z,98169.06
2018-05-25T05:01:47.051Z,98175.95
2018-05-25T05:02:18.633Z,98171.34
2018-05-25T05:02:50.226Z,98166.71
2018-05-25T05:03:21.878Z,98172.33
2018-05-25T05:03:53.485Z,98172.39
2018-05-25T05:04:25.066Z,98170.77
2018-05-25T05:04:56.752Z,98166.50
2018-05-25T05:05:28.405Z,98169.12
2018-05-25T05:06:00.009Z,98165.31
2018-05-25T05:06:31.584Z,98166.22
2018-05-25T05:07:03.322Z,98167.56
2018-05-25T05:07:34.897Z,98168.42
2018-05-25T05:08:06.498Z,98165.50
2018-05-25T05:08:38.213Z,98170.61
2018-05-25T05:09:09.816Z,98152.59
2018-05-25T05:09:41.402Z,98174.95
2018-05-25T05:10:12.986Z,98169.88
2018-05-25T05:10:44.556Z,98173.36
2018-05-25T05:11:16.210Z,98169.95
2018-05-25T05:11:47.821Z,98171.29
2018-05-25T05:12:19.532Z,98166.62
2018-05-25T05:12:52.314Z,98155.38
2018-05-25T05:13:24.642Z,98170.52
2018-05-25T05:13:57.444Z,98172.25
2018-05-25T05:15:18.938Z,98169.77
2018-05-25T05:15:50.701Z,98167.24
2018-05-25T05:16:22.332Z,98175.80
2018-05-25T05:16:53.926Z,98170.30
2018-05-25T05:17:25.497Z,98169.45
2018-05-25T05:17:57.115Z,98170.39
2018-05-25T05:18:28.740Z,98171.66
2018-05-25T05:19:00.348Z,98173.80
2018-05-25T05:19:31.932Z,98175.12
2018-05-25T05:20:03.545Z,98175.99
2018-05-25T05:20:35.154Z,98178.14
2018-05-25T05:21:06.725Z,98179.88
2018-05-25T05:21:38.317Z,98172.65
2018-05-25T05:22:09.900Z,98179.05
2018-05-25T05:22:41.535Z,98171.37
2018-05-25T05:23:13.146Z,98176.56
2018-05-25T05:23:44.728Z,98176.98
2018-05-25T05:24:16.307Z,98174.84
2018-05-25T05:24:47.918Z,98180.83
2018-05-25T05:25:19.525Z,98175.72
2018-05-25T05:25:51.140Z,98179.59
2018-05-25T05:26:22.732Z,98177.47
2018-05-25T05:26:54.333Z,98180.89
2018-05-25T05:27:25.942Z,98178.34
2018-05-25T05:27:57.584Z,98178.34
2018-05-25T05:28:29.173Z,98176.63
2018-05-25T05:29:00.762Z,98175.78
2018-05-25T05:29:32.353Z,98173.70
2018-05-25T05:30:03.962Z,98177.95
2018-05-25T05:30:35.569Z,98176.25
2018-05-25T05:31:07.173Z,98173.70
2018-05-25T05:31:38.760Z,98174.98
2018-05-25T05:32:10.338Z,98174.56
2018-05-25T05:32:41.961Z,98175.41
2018-05-25T05:33:13.546Z,98174.14
2018-05-25T05:33:45.126Z,98178.41
2018-05-25T05:34:16.729Z,98175.42
2018-05-25T05:34:48.333Z,98176.75
2018-05-25T05:35:19.944Z,98184.84
2018-05-25T05:35:51.530Z,98178.03
2018-05-25T05:36:23.114Z,98178.03
2018-05-25T05:36:54.688Z,98169.95
2018-05-25T05:37:26.494Z,98179.75
2018-05-25T05:37:58.144Z,98179.31
2018-05-25T05:38:29.740Z,98175.05
2018-05-25T05:39:01.353Z,98179.31
2018-05-25T05:39:32.942Z,98176.76
2018-05-25T05:40:04.526Z,98177.18
2018-05-25T05:40:36.096Z,98180.59
2018-05-25T05:41:07.731Z,98101.12
2018-05-25T05:41:39.312Z,98182.29
2018-05-25T05:42:10.958Z,98183.14
2018-05-25T05:42:44.083Z,98182.72
2018-05-25T05:43:26.716Z,98173.34
2018-05-25T05:44:01.400Z,98181.88
2018-05-25T05:44:36.169Z,98181.89
2018-05-25T05:45:07.890Z,98181.03
2018-05-25T05:45:39.460Z,98185.72
2018-05-25T05:46:11.050Z,98181.89
2018-05-25T05:46:43.422Z,98181.04
2018-05-25T05:47:15.131Z,98182.31
2018-05-25T05:47:47.175Z,98182.31
2018-05-25T05:48:18.784Z,98184.88
2018-05-25T05:48:50.454Z,98155.55
2018-05-25T05:49:22.086Z,98185.73
2018-05-25T05:49:53.674Z,98180.66
2018-05-25T05:50:25.298Z,98183.64
2018-05-25T05:50:56.953Z,98183.65
2018-05-25T05:51:28.518Z,98183.22
2018-05-25T05:52:00.126Z,98181.10
2018-05-25T05:52:31.724Z,98183.65
2018-05-25T05:53:03.333Z,98183.22
2018-05-25T05:53:34.918Z,98183.22
2018-05-25T05:54:06.489Z,98174.33
2018-05-25T05:54:38.074Z,98182.81
2018-05-25T05:55:11.467Z,98186.27
2018-05-25T05:55:43.060Z,98181.58
2018-05-25T05:56:14.666Z,98180.72
2018-05-25T05:56:46.260Z,98179.02
2018-05-25T05:57:17.869Z,98177.31
2018-05-25T05:57:49.464Z,98181.58
2018-05-25T05:58:21.057Z,98180.30
2018-05-25T05:58:52.650Z,98183.28
2018-05-25T05:59:24.237Z,98180.73
2018-05-25T05:59:55.852Z,98183.71
2018-05-25T06:00:27.487Z,98183.29
2018-05-25T06:00:59.091Z,98182.44
2018-05-25T06:01:30.706Z,98177.75
2018-05-25T06:02:02.334Z,98177.32
2018-05-25T06:02:33.951Z,98181.59
2018-05-25T06:03:05.538Z,98180.73
2018-05-25T06:03:37.122Z,98176.91
2018-05-25T06:04:08.719Z,98176.05
2018-05-25T06:04:40.330Z,98179.89
2018-05-25T06:05:11.934Z,98178.19
2018-05-25T06:05:43.516Z,98179.03
2018-05-25T06:06:15.142Z,98176.91
2018-05-25T06:06:46.731Z,98173.53
2018-05-25T06:07:18.310Z,98175.62
2018-05-25T06:07:49.889Z,98184.20
2018-05-25T06:08:21.493Z,98176.09
2018-05-25T06:08:53.102Z,98173.11
2018-05-25T06:09:24.689Z,98178.23
2018-05-25T06:09:56.277Z,98173.97
2018-05-25T06:10:27.901Z,98171.42
2018-05-25T06:10:59.501Z,98173.13
2018-05-25T06:11:31.091Z,98175.26
2018-05-25T06:12:02.661Z,98177.81
2018-05-25T06:12:34.242Z,98177.39